createdAt,value
2022-10-07T00:01:33.071Z,10.98
2022-10-07T00:04:05.766Z,10.00
2022-10-07T00:06:38.826Z,13.32
2022-10-07T00:09:11.489Z,9.23
2022-10-07T00:11:44.347Z,8.77
2022-10-07T00:14:17.005Z,11.55
2022-10-07T00:16:50.013Z,12.80
2022-10-07T00:19:23.026Z,8.80
2022-10-07T00:21:55.857Z,8.38
2022-10-07T00:24:28.365Z,10.20
2022-10-07T00:27:01.759Z,9.13
2022-10-07T00:29:34.451Z,11.10
2022-10-07T00:32:07.354Z,9.15
2022-10-07T00:34:39.949Z,9.32
2022-10-07T00:37:12.747Z,10.90
2022-10-07T00:39:46.172Z,10.70
2022-10-07T00:42:19.077Z,10.20
2022-10-07T00:44:51.587Z,12.05
2022-10-07T00:47:27.179Z,11.60
2022-10-07T00:50:09.002Z,6.80
2022-10-07T00:52:44.654Z,7.20
2022-10-07T00:55:21.792Z,7.25
2022-10-07T00:57:57.593Z,7.05
2022-10-07T01:00:30.530Z,8.63
2022-10-07T01:03:04.373Z,7.70
2022-10-07T01:05:38.386Z,7.07
2022-10-07T01:08:11.323Z,5.07
2022-10-07T01:11:00.533Z,7.63
2022-10-07T01:13:38.480Z,6.90
2022-10-07T01:16:10.987Z,7.28
2022-10-07T01:19:05.001Z,6.30
2022-10-07T01:22:01.197Z,8.18
2022-10-07T01:24:42.234Z,9.00
2022-10-07T01:27:15.639Z,8.53
2022-10-07T01:29:56.346Z,9.10
2022-10-07T01:32:37.133Z,8.60
2022-10-07T01:35:12.545Z,7.40
2022-10-07T01:37:48.810Z,8.32
2022-10-07T01:40:27.787Z,10.70
2022-10-07T01:43:00.552Z,9.23
2022-10-07T01:45:38.311Z,11.38
2022-10-07T01:48:11.023Z,9.02
2022-10-07T01:50:44.359Z,10.13
2022-10-07T01:53:19.637Z,12.65
2022-10-07T01:55:55.767Z,9.43
2022-10-07T01:58:31.557Z,10.33
2022-10-07T02:01:19.763Z,6.63
2022-10-07T02:03:52.608Z,9.80
2022-10-07T02:06:34.056Z,10.60
2022-10-07T02:09:12.475Z,9.50
2022-10-07T02:11:47.775Z,11.23
2022-10-07T02:14:25.605Z,9.45
2022-10-07T02:17:08.336Z,9.02
2022-10-07T02:19:44.312Z,7.97
2022-10-07T02:22:18.931Z,7.18
2022-10-07T02:24:52.647Z,7.72
2022-10-07T02:27:30.874Z,5.53
2022-10-07T02:30:21.615Z,8.50
2022-10-07T02:32:56.086Z,7.75
2022-10-07T02:35:52.596Z,6.25
2022-10-07T02:38:26.628Z,7.90
2022-10-07T02:41:06.475Z,6.93
2022-10-07T02:43:56.659Z,10.20
2022-10-07T02:46:32.342Z,7.85
2022-10-07T02:49:06.897Z,9.15
2022-10-07T02:51:42.096Z,12.15
2022-10-07T02:54:18.386Z,9.40
2022-10-07T02:56:51.291Z,11.50
2022-10-07T02:59:26.049Z,12.97
2022-10-07T03:02:00.901Z,7.90
2022-10-07T03:04:34.074Z,11.00
2022-10-07T03:07:07.059Z,10.17
2022-10-07T03:09:47.649Z,11.90
2022-10-07T03:12:22.881Z,8.55
2022-10-07T03:14:55.872Z,9.23
2022-10-07T03:17:28.389Z,7.32
2022-10-07T03:20:01.998Z,6.68
2022-10-07T03:22:36.755Z,6.68
2022-10-07T03:25:10.172Z,7.47
2022-10-07T03:27:43.609Z,6.47
2022-10-07T03:30:21.146Z,8.82
2022-10-07T03:32:58.143Z,8.35
2022-10-07T03:35:31.906Z,6.43
2022-10-07T03:38:08.716Z,11.65
2022-10-07T03:40:44.137Z,8.32
2022-10-07T03:43:18.607Z,7.20
2022-10-07T03:45:51.967Z,6.60
2022-10-07T03:48:24.702Z,11.13
2022-10-07T03:50:58.553Z,9.02
2022-10-07T03:53:33.835Z,15.65
2022-10-07T03:56:08.340Z,11.93
2022-10-07T03:58:42.457Z,9.95
2022-10-07T04:01:18.900Z,15.23
2022-10-07T04:04:00.801Z,15.00
2022-10-07T04:06:37.037Z,16.15
2022-10-07T04:09:14.363Z,17.08
2022-10-07T04:11:47.273Z,9.90
2022-10-07T04:14:19.770Z,17.30
2022-10-07T04:16:54.896Z,18.15
2022-10-07T04:19:28.073Z,12.05
2022-10-07T04:22:04.940Z,12.68
2022-10-07T04:24:40.982Z,13.25
2022-10-07T04:27:23.574Z,16.35
2022-10-07T04:30:07.237Z,15.30
2022-10-07T04:32:40.182Z,10.97
2022-10-07T04:35:12.985Z,13.47
2022-10-07T04:37:48.342Z,13.23
2022-10-07T04:40:21.560Z,13.40
2022-10-07T04:43:14.004Z,13.83
2022-10-07T04:45:47.754Z,13.70
2022-10-07T04:48:22.879Z,13.40
2022-10-07T04:50:56.763Z,11.73
2022-10-07T04:53:31.877Z,11.82
2022-10-07T04:56:04.839Z,12.25
2022-10-07T04:58:38.394Z,13.85
2022-10-07T05:01:11.870Z,17.40
2022-10-07T05:03:48.502Z,11.82
2022-10-07T05:06:21.592Z,18.13
2022-10-07T05:08:54.599Z,22.80
2022-10-07T05:11:28.573Z,18.20
2022-10-07T05:14:11.145Z,12.80
2022-10-07T05:16:44.771Z,11.50
2022-10-07T05:19:19.047Z,17.35
2022-10-07T05:21:52.360Z,16.30
2022-10-07T05:24:25.354Z,13.75
2022-10-07T05:26:59.937Z,17.87
2022-10-07T05:29:34.227Z,12.05
2022-10-07T05:32:06.891Z,11.85
2022-10-07T05:34:49.593Z,16.38
2022-10-07T05:37:22.552Z,17.70
2022-10-07T05:39:56.232Z,21.73
2022-10-07T05:42:32.436Z,13.38
2022-10-07T05:45:06.326Z,16.58
2022-10-07T05:47:40.357Z,22.33
2022-10-07T05:50:13.784Z,17.57
2022-10-07T05:52:46.396Z,15.80
2022-10-07T05:55:20.674Z,19.38
2022-10-07T05:57:53.345Z,16.75
2022-10-07T06:00:26.421Z,18.27
2022-10-07T06:02:59.002Z,18.95
2022-10-07T06:05:32.630Z,21.85
2022-10-07T06:08:27.496Z,18.50
2022-10-07T06:11:34.100Z,17.95
2022-10-07T06:14:06.814Z,20.17
2022-10-07T06:16:40.245Z,21.45
2022-10-07T06:19:22.965Z,25.98
2022-10-07T06:21:59.414Z,24.08
2022-10-07T06:24:34.158Z,26.40
2022-10-07T06:27:08.469Z,30.55
2022-10-07T06:29:42.761Z,33.90
2022-10-07T06:32:15.806Z,32.47
2022-10-07T06:34:49.540Z,32.13
2022-10-07T06:37:23.078Z,29.50
2022-10-07T06:39:59.450Z,29.17
2022-10-07T06:42:34.542Z,31.00
2022-10-07T06:45:25.763Z,34.78
2022-10-07T06:48:01.944Z,33.88
2022-10-07T06:50:35.550Z,29.70
2022-10-07T06:53:09.230Z,29.25
2022-10-07T06:55:41.758Z,35.47
2022-10-07T06:58:14.661Z,27.45
2022-10-07T07:00:52.602Z,29.07
2022-10-07T07:03:28.531Z,32.20
2022-10-07T07:06:03.179Z,30.30
2022-10-07T07:08:41.580Z,30.52
2022-10-07T07:11:32.764Z,29.50
2022-10-07T07:14:12.145Z,29.08
2022-10-07T07:16:47.669Z,28.23
2022-10-07T07:19:20.513Z,27.08
2022-10-07T07:21:53.128Z,24.85
2022-10-07T07:24:28.471Z,24.17
2022-10-07T07:27:01.818Z,22.13
2022-10-07T07:29:36.503Z,22.50
2022-10-07T07:32:10.131Z,26.37
2022-10-07T07:34:47.167Z,34.10
2022-10-07T07:37:25.480Z,29.23
2022-10-07T07:40:01.205Z,19.85
2022-10-07T07:42:35.525Z,25.30
2022-10-07T07:45:09.191Z,21.70
2022-10-07T07:47:42.515Z,20.15
2022-10-07T07:50:16.155Z,21.77
2022-10-07T07:52:48.890Z,23.48
2022-10-07T07:55:22.916Z,23.83
2022-10-07T07:57:55.855Z,20.47
2022-10-07T08:00:28.763Z,22.40
2022-10-07T08:03:09.463Z,24.33
2022-10-07T08:05:42.753Z,23.77
2022-10-07T08:08:15.356Z,21.70
2022-10-07T08:10:51.941Z,23.50
2022-10-07T08:13:25.177Z,22.77
2022-10-07T08:15:58.128Z,27.33
2022-10-07T08:18:35.198Z,26.77
2022-10-07T08:21:08.671Z,18.77
2022-10-07T08:23:42.155Z,15.27
2022-10-07T08:26:15.355Z,22.17
2022-10-07T08:28:49.497Z,20.05
2022-10-07T08:31:23.195Z,19.27
2022-10-07T08:33:59.690Z,23.92
2022-10-07T08:36:34.009Z,23.70
2022-10-07T08:39:07.111Z,23.38
2022-10-07T08:42:00.580Z,18.75
2022-10-07T08:44:37.294Z,18.25
2022-10-07T08:47:16.371Z,21.60
2022-10-07T08:49:50.168Z,15.75
2022-10-07T08:52:38.508Z,18.53
2022-10-07T08:55:30.082Z,24.67
2022-10-07T08:58:21.351Z,20.90
2022-10-07T09:00:59.663Z,20.50
2022-10-07T09:03:38.745Z,19.10
2022-10-07T09:06:14.344Z,19.27
2022-10-07T09:08:52.615Z,19.73
2022-10-07T09:11:26.291Z,16.63
2022-10-07T09:14:19.596Z,15.57
2022-10-07T09:16:55.335Z,17.33
2022-10-07T09:19:36.948Z,14.50
2022-10-07T09:22:23.272Z,14.55
2022-10-07T09:25:00.330Z,13.20
2022-10-07T09:27:33.823Z,15.35
2022-10-07T09:30:07.003Z,18.27
2022-10-07T09:32:42.830Z,14.68
2022-10-07T09:35:17.888Z,14.80
2022-10-07T09:37:55.499Z,16.55
2022-10-07T09:40:28.288Z,14.40
2022-10-07T09:43:01.367Z,16.00
2022-10-07T09:45:35.355Z,16.40
2022-10-07T09:48:17.352Z,13.38
2022-10-07T09:50:50.326Z,14.68
2022-10-07T09:53:27.224Z,16.83
2022-10-07T09:56:01.242Z,18.58
2022-10-07T09:58:33.885Z,15.20
2022-10-07T10:01:10.824Z,17.55
2022-10-07T10:03:43.550Z,16.10
2022-10-07T10:06:22.119Z,19.83
2022-10-07T10:08:56.564Z,17.70
2022-10-07T10:11:29.565Z,15.73
2022-10-07T10:14:22.331Z,14.47
2022-10-07T10:16:55.269Z,14.00
2022-10-07T10:19:28.081Z,16.52
2022-10-07T10:22:01.306Z,17.85
2022-10-07T10:24:52.247Z,17.88
2022-10-07T10:27:30.598Z,17.20
2022-10-07T10:30:04.767Z,14.38
2022-10-07T10:32:50.477Z,16.85
2022-10-07T10:35:30.145Z,16.98
2022-10-07T10:38:21.454Z,14.90
2022-10-07T10:40:54.029Z,14.18
2022-10-07T10:43:26.846Z,14.77
2022-10-07T10:46:05.579Z,12.20
2022-10-07T10:48:47.597Z,10.88
2022-10-07T10:51:32.223Z,12.83
2022-10-07T10:54:31.823Z,12.80
2022-10-07T10:57:15.220Z,13.20
2022-10-07T11:00:04.381Z,12.93
2022-10-07T11:02:37.487Z,12.95
2022-10-07T11:05:15.354Z,15.73
2022-10-07T11:07:48.144Z,11.77
2022-10-07T11:10:21.046Z,14.50
2022-10-07T11:13:01.821Z,13.40
2022-10-07T11:15:43.004Z,13.13
2022-10-07T11:18:24.654Z,12.07
2022-10-07T11:20:59.729Z,12.57
2022-10-07T11:23:44.724Z,12.00
2022-10-07T11:26:23.274Z,13.02
2022-10-07T11:28:56.466Z,21.88
2022-10-07T11:31:33.772Z,11.02
2022-10-07T11:34:25.255Z,9.45
2022-10-07T11:37:08.793Z,9.82
2022-10-07T11:39:41.349Z,12.63
2022-10-07T11:42:16.883Z,10.25
2022-10-07T11:44:55.728Z,10.25
2022-10-07T11:47:35.077Z,10.43
2022-10-07T11:50:08.173Z,10.95
2022-10-07T11:52:44.646Z,11.32
2022-10-07T11:55:20.595Z,12.75
2022-10-07T11:57:57.107Z,20.67
2022-10-07T12:00:32.023Z,13.45
2022-10-07T12:03:20.200Z,10.55
2022-10-07T12:05:55.957Z,11.85
2022-10-07T12:08:32.067Z,11.27
2022-10-07T12:11:15.206Z,12.02
2022-10-07T12:13:50.023Z,15.63
2022-10-07T12:16:28.587Z,16.63
2022-10-07T12:19:07.741Z,13.73
2022-10-07T12:21:59.760Z,9.93
2022-10-07T12:24:36.654Z,9.32
2022-10-07T12:27:13.946Z,15.32
2022-10-07T12:29:49.158Z,13.40
2022-10-07T12:32:40.570Z,10.88
2022-10-07T12:35:42.273Z,14.57
2022-10-07T12:38:17.136Z,10.70
2022-10-07T12:41:08.858Z,11.35
2022-10-07T12:43:46.289Z,10.68
2022-10-07T12:46:20.878Z,11.57
2022-10-07T12:48:53.387Z,12.65
2022-10-07T12:51:39.702Z,11.93
2022-10-07T12:54:23.143Z,10.30
2022-10-07T12:56:57.509Z,11.95
2022-10-07T12:59:49.921Z,10.75
2022-10-07T13:02:31.765Z,13.68
2022-10-07T13:05:06.095Z,9.30
2022-10-07T13:08:00.201Z,13.73
2022-10-07T13:10:51.751Z,10.60
2022-10-07T13:13:44.751Z,11.18
2022-10-07T13:16:38.879Z,9.87
2022-10-07T13:19:30.789Z,8.68
2022-10-07T13:22:11.729Z,7.72
2022-10-07T13:24:54.084Z,9.30
2022-10-07T13:27:28.131Z,15.10
2022-10-07T13:30:02.077Z,7.43
2022-10-07T13:32:36.577Z,7.67
2022-10-07T13:35:30.525Z,8.18
2022-10-07T13:38:03.124Z,8.18
2022-10-07T13:40:36.279Z,7.70
2022-10-07T13:43:09.356Z,9.03
2022-10-07T13:45:45.409Z,8.70
2022-10-07T13:48:23.563Z,6.90
2022-10-07T13:50:58.938Z,7.63
2022-10-07T13:53:34.377Z,6.70
2022-10-07T13:56:19.653Z,6.97
2022-10-07T13:58:55.487Z,7.47
2022-10-07T14:01:30.037Z,8.07
2022-10-07T14:04:02.635Z,6.43
2022-10-07T14:06:42.029Z,7.53
2022-10-07T14:09:32.934Z,8.87
2022-10-07T14:12:08.631Z,9.45
2022-10-07T14:14:43.332Z,9.07
2022-10-07T14:17:25.075Z,7.80
2022-10-07T14:19:59.180Z,6.63
2022-10-07T14:22:36.267Z,6.03
2022-10-07T14:25:29.107Z,6.97
2022-10-07T14:28:20.313Z,7.67
2022-10-07T14:31:23.935Z,6.28
2022-10-07T14:34:15.488Z,6.47
2022-10-07T14:37:06.530Z,8.93
2022-10-07T14:39:40.854Z,8.70
2022-10-07T14:42:32.605Z,6.30
2022-10-07T14:45:09.426Z,10.13
2022-10-07T14:47:47.398Z,8.82
2022-10-07T14:50:20.312Z,7.55
2022-10-07T14:52:53.285Z,7.15
2022-10-07T14:55:28.154Z,8.50
2022-10-07T14:58:01.439Z,10.40
2022-10-07T15:00:39.315Z,6.82
2022-10-07T15:03:12.764Z,7.53
2022-10-07T15:05:47.531Z,7.97
2022-10-07T15:08:21.691Z,7.07
2022-10-07T15:10:54.637Z,7.22
2022-10-07T15:13:28.593Z,8.32
2022-10-07T15:16:02.138Z,6.55
2022-10-07T15:18:34.790Z,9.38
2022-10-07T15:21:08.957Z,8.05
2022-10-07T15:23:41.610Z,9.48
2022-10-07T15:26:15.046Z,9.82
2022-10-07T15:28:50.707Z,5.85
2022-10-07T15:31:25.073Z,4.55
2022-10-07T15:33:58.232Z,5.90
2022-10-07T15:36:32.368Z,8.23
2022-10-07T15:39:05.304Z,7.10
2022-10-07T15:41:39.536Z,6.30
2022-10-07T15:44:30.474Z,9.43
2022-10-07T15:47:03.498Z,10.40
2022-10-07T15:49:36.764Z,5.55
2022-10-07T15:52:11.891Z,6.82
2022-10-07T15:54:46.772Z,4.85
2022-10-07T15:57:19.927Z,5.45
2022-10-07T15:59:54.999Z,13.15
2022-10-07T16:02:28.233Z,6.45
2022-10-07T16:05:01.280Z,10.27
2022-10-07T16:07:35.484Z,8.57
2022-10-07T16:10:12.700Z,8.82
2022-10-07T16:12:46.622Z,14.88
2022-10-07T16:15:19.861Z,14.60
2022-10-07T16:17:53.575Z,15.43
2022-10-07T16:20:26.419Z,12.23
2022-10-07T16:22:59.211Z,15.80
2022-10-07T16:25:31.846Z,14.00
2022-10-07T16:28:23.274Z,12.85
2022-10-07T16:30:55.944Z,18.00
2022-10-07T16:33:30.175Z,21.50
2022-10-07T16:36:10.099Z,33.42
2022-10-07T16:38:43.203Z,35.65
2022-10-07T16:41:15.816Z,30.57
2022-10-07T16:43:50.256Z,18.80
2022-10-07T16:46:23.313Z,14.77
2022-10-07T16:48:56.452Z,11.40
2022-10-07T16:51:30.332Z,7.32
2022-10-07T16:54:13.368Z,7.82
2022-10-07T16:56:48.326Z,9.02
2022-10-07T16:59:23.437Z,6.78
2022-10-07T17:01:57.142Z,10.60
2022-10-07T17:04:30.013Z,17.08
2022-10-07T17:07:06.315Z,26.15
2022-10-07T17:09:39.354Z,30.58
2022-10-07T17:12:12.002Z,26.67
2022-10-07T17:14:45.462Z,20.98
2022-10-07T17:17:19.349Z,19.52
2022-10-07T17:19:52.788Z,29.60
2022-10-07T17:22:25.311Z,27.70
2022-10-07T17:25:00.094Z,20.67
2022-10-07T17:27:32.669Z,11.80
2022-10-07T17:30:06.319Z,13.40
2022-10-07T17:32:39.118Z,11.73
2022-10-07T17:35:12.254Z,8.80
2022-10-07T17:37:44.959Z,9.82
2022-10-07T17:40:38.554Z,12.48
2022-10-07T17:43:24.343Z,7.93
2022-10-07T17:46:00.466Z,9.27
2022-10-07T17:48:34.527Z,7.43
2022-10-07T17:51:07.751Z,6.95
2022-10-07T17:53:40.344Z,9.48
2022-10-07T17:56:14.660Z,9.85
2022-10-07T17:58:48.997Z,11.40
2022-10-07T18:01:27.537Z,10.38
2022-10-07T18:04:01.342Z,13.02
2022-10-07T18:06:35.957Z,13.73
2022-10-07T18:09:09.518Z,10.18
2022-10-07T18:12:01.025Z,14.75
2022-10-07T18:14:54.041Z,14.10
2022-10-07T18:17:27.685Z,12.63
2022-10-07T18:20:01.424Z,11.65
2022-10-07T18:22:37.483Z,12.63
2022-10-07T18:25:12.147Z,10.15
2022-10-07T18:27:45.257Z,8.55
2022-10-07T18:30:17.973Z,9.35
2022-10-07T18:32:50.954Z,11.52
2022-10-07T18:35:23.665Z,9.00
2022-10-07T18:37:56.601Z,13.00
2022-10-07T18:40:29.183Z,11.63
2022-10-07T18:43:02.097Z,15.70
2022-10-07T18:45:37.652Z,9.95
2022-10-07T18:48:11.644Z,11.85
2022-10-07T18:50:50.317Z,8.52
2022-10-07T18:53:23.229Z,9.60
2022-10-07T18:55:59.636Z,9.38
2022-10-07T18:58:36.725Z,12.57
2022-10-07T19:01:13.639Z,10.48
2022-10-07T19:03:46.987Z,8.65
2022-10-07T19:06:21.572Z,9.85
2022-10-07T19:08:57.223Z,10.75
2022-10-07T19:11:30.847Z,12.90
2022-10-07T19:14:04.034Z,10.55
2022-10-07T19:16:38.145Z,15.25
2022-10-07T19:19:14.015Z,15.57
2022-10-07T19:21:48.015Z,19.33
2022-10-07T19:24:21.270Z,14.75
2022-10-07T19:26:56.452Z,14.98
2022-10-07T19:29:29.679Z,15.93
2022-10-07T19:32:07.154Z,15.52
2022-10-07T19:34:41.080Z,11.80
2022-10-07T19:37:16.760Z,9.90
2022-10-07T19:39:49.673Z,11.68
2022-10-07T19:42:22.331Z,10.73
2022-10-07T19:44:55.153Z,11.18
2022-10-07T19:47:27.927Z,8.27
2022-10-07T19:50:02.066Z,10.65
2022-10-07T19:52:34.626Z,8.35
2022-10-07T19:55:07.742Z,9.43
2022-10-07T19:57:40.304Z,7.82
2022-10-07T20:00:13.359Z,8.88
2022-10-07T20:02:48.480Z,6.82
2022-10-07T20:05:21.570Z,13.45
2022-10-07T20:07:54.301Z,8.68
2022-10-07T20:10:27.491Z,9.90
2022-10-07T20:13:00.031Z,6.80
2022-10-07T20:15:33.548Z,7.25
2022-10-07T20:18:06.408Z,8.20
2022-10-07T20:20:39.602Z,8.50
2022-10-07T20:23:12.128Z,8.40
2022-10-07T20:25:47.016Z,7.53
2022-10-07T20:28:19.856Z,9.65
2022-10-07T20:30:52.657Z,7.43
2022-10-07T20:33:25.105Z,7.73
2022-10-07T20:36:01.552Z,8.75
2022-10-07T20:38:55.629Z,6.80
2022-10-07T20:41:47.302Z,9.00
2022-10-07T20:44:20.428Z,8.17
2022-10-07T20:46:53.395Z,8.77
2022-10-07T20:49:29.463Z,10.82
2022-10-07T20:52:05.411Z,8.32
2022-10-07T20:54:37.979Z,8.73
2022-10-07T20:57:12.462Z,8.20
2022-10-07T20:59:45.078Z,8.50
2022-10-07T21:02:19.888Z,8.50
2022-10-07T21:04:52.411Z,8.87
2022-10-07T21:07:25.364Z,9.52
2022-10-07T21:09:59.071Z,9.27
2022-10-07T21:12:32.836Z,8.63
2022-10-07T21:15:05.586Z,8.30
2022-10-07T21:17:39.093Z,11.23
2022-10-07T21:20:11.592Z,9.65
2022-10-07T21:22:44.632Z,24.75
2022-10-07T21:25:18.484Z,15.02
2022-10-07T21:27:51.335Z,15.13
2022-10-07T21:30:23.892Z,6.55
2022-10-07T21:32:58.905Z,8.90
2022-10-07T21:35:31.738Z,8.20
2022-10-07T21:38:04.634Z,10.40
2022-10-07T21:40:37.207Z,10.48
2022-10-07T21:43:10.155Z,10.07
2022-10-07T21:45:42.705Z,9.68
2022-10-07T21:48:15.571Z,5.60
2022-10-07T21:50:55.392Z,8.73
2022-10-07T21:53:28.314Z,8.63
2022-10-07T21:56:08.668Z,10.25
2022-10-07T21:58:42.660Z,9.10
2022-10-07T22:01:18.530Z,8.32
2022-10-07T22:03:55.451Z,7.20
2022-10-07T22:06:47.423Z,7.50
2022-10-07T22:09:21.341Z,10.02
2022-10-07T22:11:54.024Z,7.47
2022-10-07T22:14:27.935Z,8.85
2022-10-07T22:17:00.584Z,7.87
2022-10-07T22:19:33.565Z,11.93
2022-10-07T22:22:06.892Z,6.55
2022-10-07T22:24:39.734Z,10.70
2022-10-07T22:27:12.364Z,9.00
2022-10-07T22:29:45.296Z,10.23
2022-10-07T22:32:17.915Z,9.48
2022-10-07T22:35:09.118Z,8.30
2022-10-07T22:37:41.897Z,9.02
2022-10-07T22:40:14.850Z,10.07
2022-10-07T22:42:47.527Z,10.32
2022-10-07T22:45:20.787Z,7.97
2022-10-07T22:47:53.421Z,9.43
2022-10-07T22:50:26.418Z,8.02
2022-10-07T22:52:58.902Z,9.20
2022-10-07T22:55:33.439Z,8.80
2022-10-07T22:58:06.625Z,8.07
2022-10-07T23:04:21.832Z,7.68
2022-10-07T23:06:55.236Z,11.05
2022-10-07T23:09:27.797Z,10.85
2022-10-07T23:12:01.728Z,7.43
2022-10-07T23:14:34.287Z,9.93
2022-10-07T23:17:08.728Z,14.98
2022-10-07T23:19:42.347Z,10.60
2022-10-07T23:22:15.236Z,9.32
2022-10-07T23:24:47.766Z,9.57
2022-10-07T23:27:20.795Z,10.30
2022-10-07T23:29:53.258Z,9.23
2022-10-07T23:32:27.120Z,8.00
2022-10-07T23:35:00.248Z,8.45
2022-10-07T23:37:34.164Z,7.70
2022-10-07T23:40:07.077Z,8.50
2022-10-07T23:42:40.171Z,7.20
2022-10-07T23:45:13.661Z,8.90
2022-10-07T23:47:46.646Z,11.95
2022-10-07T23:50:20.991Z,9.43
2022-10-07T23:52:53.895Z,11.02
2022-10-07T23:55:26.454Z,12.90
2022-10-07T23:57:59.384Z,9.93
